モントリオール/トルドー の空港の天気 - METARとTAF

モントリオール・ピエール・エリオット・トルドー国際空港 ( CYUL / YUL ) - カナダ ケベック州モントリオール
飛行場実況気象(Metar)
観測時間09/24 19:00 EDT (09/24 23:00 UTC)
風向・風速南南西 8m/s
視程10km以上
天気現象
少しの雲 雲底高度 1680m
全天の4割程度の雲 雲底高度 2130m
気温18℃
湿度60%
気圧1015.4hPa
METARCYUL 242300Z 21015KT 30SM FEW055 SCT070 18/10 A2998 RMK SC2AC2 SLP154 DENSITY ALT 400FT
過去の天気等 Google飛行場航空写真 Wunderground天気予報

過去48時間のMETAR

飛行場予報(TAF)
発表時間: 9/24 16:39 EDT (9/24 20:39 UTC)
予報対象時間: 24日17時 EDT ~ 25日14時 EDT
風向・風速南西 8m/s 瞬間風速 13m/s
視程10km以上
全天の4割程度の雲 雲底高度 910m
24日18時 EDT ~ 24日20時 EDT に徐々に
風向・風速西南西 6m/s
24日21時 EDT から
風向・風速南西 5m/s
視程10km以上
全天の8割程度の雲 雲底高度 910m
25日5時 EDT から
風向・風速南西 4m/s
視程10km以上
少しの雲 雲底高度 240m
全天の4割程度の雲 雲底高度 610m
25日5時 EDT ~ 25日8時 EDT に一時的に
視程4830m
天気現象もや
全天の8割程度の雲 雲底高度 240m
全天の8割程度の雲 雲底高度 610m
25日8時 EDT から
風向・風速南 3m/s
視程10km以上
少しの雲 雲底高度 760m
25日13時 EDT から
風向・風速南 3m/s
視程10km以上
全天の4割程度の雲 雲底高度 910m
TAF CYUL 242039Z 2421/2518 23015G25KT P6SM SCT030
BECMG 2422/2424 25012KT
FM250100 22010KT P6SM BKN030
FM250900 22008KT P6SM FEW008 SCT020
TEMPO 2509/2512 3SM BR BKN008 BKN020
FM251200 18005KT P6SM FEW025
FM251700 18005KT P6SM SCT030 RMK NXT FCST BY 250000Z